sensor_id;sensor_type;location;lat;lon;timestamp;P1;durP1;ratioP1;P2;durP2;ratioP2
41201;SDS011;26936;50.524;8.684;2023-04-24T00:02:01;2.17;;;1.17;;
41201;SDS011;26936;50.524;8.684;2023-04-24T00:04:28;1.20;;;0.90;;
41201;SDS011;26936;50.524;8.684;2023-04-24T00:06:53;2.13;;;1.00;;
41201;SDS011;26936;50.524;8.684;2023-04-24T00:09:22;1.00;;;0.80;;
41201;SDS011;26936;50.524;8.684;2023-04-24T00:11:47;1.10;;;0.82;;
41201;SDS011;26936;50.524;8.684;2023-04-24T00:14:12;1.40;;;1.08;;
41201;SDS011;26936;50.524;8.684;2023-04-24T00:16:38;2.80;;;0.97;;
41201;SDS011;26936;50.524;8.684;2023-04-24T00:19:03;1.10;;;1.00;;
41201;SDS011;26936;50.524;8.684;2023-04-24T00:21:30;1.58;;;1.00;;
41201;SDS011;26936;50.524;8.684;2023-04-24T00:23:57;1.35;;;0.82;;
41201;SDS011;26936;50.524;8.684;2023-04-24T00:26:23;2.05;;;0.77;;
41201;SDS011;26936;50.524;8.684;2023-04-24T00:28:48;1.83;;;1.20;;
41201;SDS011;26936;50.524;8.684;2023-04-24T00:31:13;2.90;;;0.88;;
41201;SDS011;26936;50.524;8.684;2023-04-24T00:33:39;1.67;;;1.00;;
41201;SDS011;26936;50.524;8.684;2023-04-24T00:36:04;2.85;;;0.73;;
41201;SDS011;26936;50.524;8.684;2023-04-24T00:38:30;2.15;;;0.80;;
41201;SDS011;26936;50.524;8.684;2023-04-24T00:40:56;1.67;;;1.08;;
41201;SDS011;26936;50.524;8.684;2023-04-24T00:43:21;1.23;;;0.98;;
41201;SDS011;26936;50.524;8.684;2023-04-24T00:45:46;1.02;;;0.77;;
41201;SDS011;26936;50.524;8.684;2023-04-24T00:48:12;1.20;;;0.90;;
41201;SDS011;26936;50.524;8.684;2023-04-24T00:50:38;2.70;;;1.10;;
41201;SDS011;26936;50.524;8.684;2023-04-24T00:53:03;2.88;;;1.02;;
41201;SDS011;26936;50.524;8.684;2023-04-24T00:55:29;1.42;;;0.98;;
41201;SDS011;26936;50.524;8.684;2023-04-24T00:57:54;3.63;;;1.23;;
41201;SDS011;26936;50.524;8.684;2023-04-24T01:00:20;2.97;;;1.50;;
41201;SDS011;26936;50.524;8.684;2023-04-24T01:02:45;3.58;;;1.40;;
41201;SDS011;26936;50.524;8.684;2023-04-24T01:05:12;2.67;;;1.27;;
41201;SDS011;26936;50.524;8.684;2023-04-24T01:07:38;3.22;;;1.48;;
41201;SDS011;26936;50.524;8.684;2023-04-24T01:10:05;3.90;;;1.40;;
41201;SDS011;26936;50.524;8.684;2023-04-24T01:12:32;2.10;;;1.33;;
41201;SDS011;26936;50.524;8.684;2023-04-24T01:14:58;3.00;;;1.53;;
41201;SDS011;26936;50.524;8.684;2023-04-24T01:17:23;1.95;;;1.23;;
41201;SDS011;26936;50.524;8.684;2023-04-24T01:19:48;3.28;;;1.50;;
41201;SDS011;26936;50.524;8.684;2023-04-24T01:22:14;3.92;;;1.55;;
41201;SDS011;26936;50.524;8.684;2023-04-24T01:24:40;1.92;;;1.30;;
41201;SDS011;26936;50.524;8.684;2023-04-24T01:27:06;3.67;;;1.42;;
41201;SDS011;26936;50.524;8.684;2023-04-24T01:29:32;3.30;;;1.40;;
41201;SDS011;26936;50.524;8.684;2023-04-24T01:31:59;4.25;;;1.65;;
41201;SDS011;26936;50.524;8.684;2023-04-24T01:34:25;4.32;;;1.52;;
41201;SDS011;26936;50.524;8.684;2023-04-24T01:36:51;4.93;;;1.73;;
41201;SDS011;26936;50.524;8.684;2023-04-24T01:39:16;3.93;;;1.50;;
41201;SDS011;26936;50.524;8.684;2023-04-24T01:41:41;2.92;;;1.50;;
41201;SDS011;26936;50.524;8.684;2023-04-24T01:44:07;2.95;;;1.50;;
41201;SDS011;26936;50.524;8.684;2023-04-24T01:46:32;2.97;;;1.73;;
41201;SDS011;26936;50.524;8.684;2023-04-24T01:48:59;3.03;;;1.70;;
41201;SDS011;26936;50.524;8.684;2023-04-24T01:51:25;2.17;;;1.48;;
41201;SDS011;26936;50.524;8.684;2023-04-24T01:53:50;6.07;;;2.00;;
41201;SDS011;26936;50.524;8.684;2023-04-24T01:56:16;3.45;;;1.77;;
41201;SDS011;26936;50.524;8.684;2023-04-24T01:58:41;4.18;;;1.63;;
41201;SDS011;26936;50.524;8.684;2023-04-24T02:01:08;2.47;;;1.70;;
41201;SDS011;26936;50.524;8.684;2023-04-24T02:03:33;2.77;;;1.50;;
41201;SDS011;26936;50.524;8.684;2023-04-24T02:05:58;4.38;;;2.50;;
41201;SDS011;26936;50.524;8.684;2023-04-24T02:08:24;5.25;;;1.70;;
41201;SDS011;26936;50.524;8.684;2023-04-24T02:10:50;3.58;;;1.88;;
41201;SDS011;26936;50.524;8.684;2023-04-24T02:13:15;3.60;;;2.00;;
41201;SDS011;26936;50.524;8.684;2023-04-24T02:15:40;3.13;;;2.00;;
41201;SDS011;26936;50.524;8.684;2023-04-24T02:18:05;3.50;;;2.20;;
41201;SDS011;26936;50.524;8.684;2023-04-24T02:20:31;2.58;;;2.38;;
41201;SDS011;26936;50.524;8.684;2023-04-24T02:22:59;4.78;;;3.38;;
41201;SDS011;26936;50.524;8.684;2023-04-24T02:25:24;6.32;;;2.65;;
41201;SDS011;26936;50.524;8.684;2023-04-24T02:27:49;3.15;;;2.60;;
41201;SDS011;26936;50.524;8.684;2023-04-24T02:30:14;5.93;;;2.93;;
41201;SDS011;26936;50.524;8.684;2023-04-24T02:32:40;4.50;;;3.37;;
41201;SDS011;26936;50.524;8.684;2023-04-24T02:35:05;8.93;;;3.23;;
41201;SDS011;26936;50.524;8.684;2023-04-24T02:37:31;5.32;;;3.63;;
41201;SDS011;26936;50.524;8.684;2023-04-24T02:39:56;4.43;;;2.90;;
41201;SDS011;26936;50.524;8.684;2023-04-24T02:42:21;4.37;;;2.87;;
41201;SDS011;26936;50.524;8.684;2023-04-24T02:44:46;3.03;;;2.37;;
41201;SDS011;26936;50.524;8.684;2023-04-24T02:47:12;5.00;;;2.43;;
41201;SDS011;26936;50.524;8.684;2023-04-24T02:49:37;5.47;;;2.50;;
41201;SDS011;26936;50.524;8.684;2023-04-24T02:52:02;3.20;;;2.23;;
41201;SDS011;26936;50.524;8.684;2023-04-24T02:54:27;4.38;;;2.20;;
41201;SDS011;26936;50.524;8.684;2023-04-24T02:56:53;3.40;;;2.30;;
41201;SDS011;26936;50.524;8.684;2023-04-24T02:59:18;2.70;;;2.07;;
41201;SDS011;26936;50.524;8.684;2023-04-24T03:01:43;4.07;;;2.83;;
41201;SDS011;26936;50.524;8.684;2023-04-24T03:04:08;2.77;;;2.17;;
41201;SDS011;26936;50.524;8.684;2023-04-24T03:06:35;3.88;;;2.10;;
41201;SDS011;26936;50.524;8.684;2023-04-24T03:09:01;3.30;;;1.70;;
41201;SDS011;26936;50.524;8.684;2023-04-24T03:11:26;2.67;;;1.60;;
41201;SDS011;26936;50.524;8.684;2023-04-24T03:13:51;3.13;;;1.70;;
41201;SDS011;26936;50.524;8.684;2023-04-24T03:16:16;1.70;;;1.13;;
41201;SDS011;26936;50.524;8.684;2023-04-24T03:18:42;1.63;;;1.07;;
41201;SDS011;26936;50.524;8.684;2023-04-24T03:21:07;3.50;;;1.07;;
41201;SDS011;26936;50.524;8.684;2023-04-24T03:23:32;1.55;;;0.82;;
41201;SDS011;26936;50.524;8.684;2023-04-24T03:25:58;2.67;;;1.00;;
41201;SDS011;26936;50.524;8.684;2023-04-24T03:28:23;2.27;;;0.87;;
41201;SDS011;26936;50.524;8.684;2023-04-24T03:30:49;3.80;;;0.93;;
41201;SDS011;26936;50.524;8.684;2023-04-24T03:33:15;5.70;;;1.00;;
41201;SDS011;26936;50.524;8.684;2023-04-24T03:35:40;2.07;;;0.97;;
41201;SDS011;26936;50.524;8.684;2023-04-24T03:38:06;1.13;;;0.60;;
41201;SDS011;26936;50.524;8.684;2023-04-24T03:40:31;1.00;;;0.80;;
41201;SDS011;26936;50.524;8.684;2023-04-24T03:42:58;1.40;;;0.70;;
41201;SDS011;26936;50.524;8.684;2023-04-24T03:45:23;0.88;;;0.80;;
41201;SDS011;26936;50.524;8.684;2023-04-24T03:47:49;1.27;;;1.00;;
41201;SDS011;26936;50.524;8.684;2023-04-24T03:50:14;1.15;;;1.00;;
41201;SDS011;26936;50.524;8.684;2023-04-24T03:52:40;1.38;;;1.00;;
41201;SDS011;26936;50.524;8.684;2023-04-24T03:55:05;2.58;;;1.10;;
41201;SDS011;26936;50.524;8.684;2023-04-24T03:57:31;1.58;;;1.17;;
41201;SDS011;26936;50.524;8.684;2023-04-24T03:59:56;1.40;;;1.30;;
41201;SDS011;26936;50.524;8.684;2023-04-24T04:02:22;1.67;;;1.00;;
41201;SDS011;26936;50.524;8.684;2023-04-24T04:04:47;1.10;;;1.00;;
41201;SDS011;26936;50.524;8.684;2023-04-24T04:07:12;1.83;;;1.00;;
41201;SDS011;26936;50.524;8.684;2023-04-24T04:09:38;1.48;;;1.15;;
41201;SDS011;26936;50.524;8.684;2023-04-24T04:12:03;2.35;;;1.10;;
41201;SDS011;26936;50.524;8.684;2023-04-24T04:14:29;2.17;;;1.30;;
41201;SDS011;26936;50.524;8.684;2023-04-24T04:16:54;3.42;;;1.10;;
41201;SDS011;26936;50.524;8.684;2023-04-24T04:19:19;3.20;;;1.60;;
41201;SDS011;26936;50.524;8.684;2023-04-24T04:21:45;1.40;;;1.20;;
41201;SDS011;26936;50.524;8.684;2023-04-24T04:24:10;1.55;;;1.10;;
41201;SDS011;26936;50.524;8.684;2023-04-24T04:26:36;1.88;;;1.23;;
41201;SDS011;26936;50.524;8.684;2023-04-24T04:29:02;2.35;;;1.15;;
41201;SDS011;26936;50.524;8.684;2023-04-24T04:31:28;1.40;;;1.20;;
41201;SDS011;26936;50.524;8.684;2023-04-24T04:33:54;1.20;;;0.90;;
41201;SDS011;26936;50.524;8.684;2023-04-24T04:36:19;2.25;;;1.40;;
41201;SDS011;26936;50.524;8.684;2023-04-24T04:38:45;2.22;;;1.15;;
41201;SDS011;26936;50.524;8.684;2023-04-24T04:41:10;2.30;;;1.33;;
41201;SDS011;26936;50.524;8.684;2023-04-24T04:43:35;2.03;;;1.15;;
41201;SDS011;26936;50.524;8.684;2023-04-24T04:46:01;2.13;;;1.55;;
41201;SDS011;26936;50.524;8.684;2023-04-24T04:48:28;2.95;;;1.40;;
41201;SDS011;26936;50.524;8.684;2023-04-24T04:50:53;2.58;;;1.50;;
41201;SDS011;26936;50.524;8.684;2023-04-24T04:53:19;2.90;;;1.50;;
41201;SDS011;26936;50.524;8.684;2023-04-24T04:55:44;2.47;;;1.50;;
41201;SDS011;26936;50.524;8.684;2023-04-24T04:58:10;12.75;;;6.50;;
41201;SDS011;26936;50.524;8.684;2023-04-24T05:00:35;6.35;;;4.15;;
41201;SDS011;26936;50.524;8.684;2023-04-24T05:03:02;3.00;;;1.80;;
41201;SDS011;26936;50.524;8.684;2023-04-24T05:05:27;4.03;;;1.50;;
41201;SDS011;26936;50.524;8.684;2023-04-24T05:07:53;1.90;;;1.40;;
41201;SDS011;26936;50.524;8.684;2023-04-24T05:10:18;2.63;;;1.60;;
41201;SDS011;26936;50.524;8.684;2023-04-24T05:12:43;4.80;;;1.50;;
41201;SDS011;26936;50.524;8.684;2023-04-24T05:15:09;2.43;;;1.50;;
41201;SDS011;26936;50.524;8.684;2023-04-24T05:17:34;3.00;;;1.70;;
41201;SDS011;26936;50.524;8.684;2023-04-24T05:20:00;2.53;;;1.80;;
41201;SDS011;26936;50.524;8.684;2023-04-24T05:22:25;6.28;;;2.95;;
41201;SDS011;26936;50.524;8.684;2023-04-24T05:24:50;2.10;;;1.33;;
41201;SDS011;26936;50.524;8.684;2023-04-24T05:27:16;2.13;;;1.65;;
41201;SDS011;26936;50.524;8.684;2023-04-24T05:29:41;3.13;;;1.50;;
41201;SDS011;26936;50.524;8.684;2023-04-24T05:32:06;2.22;;;1.60;;
41201;SDS011;26936;50.524;8.684;2023-04-24T05:34:32;2.20;;;1.60;;
41201;SDS011;26936;50.524;8.684;2023-04-24T05:36:57;3.25;;;1.50;;
41201;SDS011;26936;50.524;8.684;2023-04-24T05:39:23;2.47;;;1.60;;
41201;SDS011;26936;50.524;8.684;2023-04-24T05:41:49;3.03;;;1.52;;
41201;SDS011;26936;50.524;8.684;2023-04-24T05:44:15;2.03;;;1.40;;
41201;SDS011;26936;50.524;8.684;2023-04-24T05:46:40;2.10;;;1.40;;
41201;SDS011;26936;50.524;8.684;2023-04-24T05:49:05;2.90;;;1.20;;
41201;SDS011;26936;50.524;8.684;2023-04-24T05:51:31;1.80;;;1.27;;
41201;SDS011;26936;50.524;8.684;2023-04-24T05:53:56;2.08;;;1.20;;
41201;SDS011;26936;50.524;8.684;2023-04-24T05:56:22;2.72;;;1.10;;
41201;SDS011;26936;50.524;8.684;2023-04-24T05:58:47;1.48;;;1.02;;
41201;SDS011;26936;50.524;8.684;2023-04-24T06:01:13;1.70;;;1.10;;
41201;SDS011;26936;50.524;8.684;2023-04-24T06:03:39;4.40;;;1.40;;
41201;SDS011;26936;50.524;8.684;2023-04-24T06:06:06;1.65;;;1.08;;
41201;SDS011;26936;50.524;8.684;2023-04-24T06:08:31;3.30;;;1.63;;
41201;SDS011;26936;50.524;8.684;2023-04-24T06:10:57;2.25;;;1.30;;
41201;SDS011;26936;50.524;8.684;2023-04-24T06:13:22;2.45;;;1.50;;
41201;SDS011;26936;50.524;8.684;2023-04-24T06:15:48;3.60;;;1.80;;
41201;SDS011;26936;50.524;8.684;2023-04-24T06:18:13;2.63;;;1.70;;
41201;SDS011;26936;50.524;8.684;2023-04-24T06:20:38;2.75;;;1.85;;
41201;SDS011;26936;50.524;8.684;2023-04-24T06:23:04;3.58;;;1.92;;
41201;SDS011;26936;50.524;8.684;2023-04-24T06:25:29;2.80;;;1.83;;
41201;SDS011;26936;50.524;8.684;2023-04-24T06:27:54;3.53;;;2.07;;
41201;SDS011;26936;50.524;8.684;2023-04-24T06:30:20;3.20;;;1.70;;
41201;SDS011;26936;50.524;8.684;2023-04-24T06:32:46;2.90;;;1.60;;
41201;SDS011;26936;50.524;8.684;2023-04-24T06:35:11;3.73;;;1.83;;
41201;SDS011;26936;50.524;8.684;2023-04-24T06:37:38;2.70;;;2.00;;
41201;SDS011;26936;50.524;8.684;2023-04-24T06:40:04;2.85;;;1.80;;
41201;SDS011;26936;50.524;8.684;2023-04-24T06:42:30;3.60;;;1.73;;
41201;SDS011;26936;50.524;8.684;2023-04-24T06:44:55;2.40;;;2.00;;
41201;SDS011;26936;50.524;8.684;2023-04-24T06:47:21;3.53;;;2.67;;
41201;SDS011;26936;50.524;8.684;2023-04-24T06:49:46;3.05;;;2.17;;
41201;SDS011;26936;50.524;8.684;2023-04-24T06:52:11;3.40;;;2.30;;
41201;SDS011;26936;50.524;8.684;2023-04-24T06:54:37;4.03;;;2.20;;
41201;SDS011;26936;50.524;8.684;2023-04-24T06:57:02;2.90;;;2.40;;
41201;SDS011;26936;50.524;8.684;2023-04-24T06:59:28;3.53;;;2.38;;
41201;SDS011;26936;50.524;8.684;2023-04-24T07:01:53;4.03;;;2.17;;
41201;SDS011;26936;50.524;8.684;2023-04-24T07:04:18;2.80;;;2.25;;
41201;SDS011;26936;50.524;8.684;2023-04-24T07:06:46;3.53;;;2.20;;
41201;SDS011;26936;50.524;8.684;2023-04-24T07:09:12;4.18;;;2.30;;
41201;SDS011;26936;50.524;8.684;2023-04-24T07:11:39;4.28;;;2.35;;
41201;SDS011;26936;50.524;8.684;2023-04-24T07:14:05;6.15;;;2.67;;
41201;SDS011;26936;50.524;8.684;2023-04-24T07:16:31;4.35;;;2.60;;
41201;SDS011;26936;50.524;8.684;2023-04-24T07:18:56;4.47;;;2.67;;
41201;SDS011;26936;50.524;8.684;2023-04-24T07:21:21;4.63;;;2.83;;
41201;SDS011;26936;50.524;8.684;2023-04-24T07:23:47;3.93;;;2.53;;
41201;SDS011;26936;50.524;8.684;2023-04-24T07:26:12;4.87;;;2.80;;
41201;SDS011;26936;50.524;8.684;2023-04-24T07:28:39;5.10;;;3.20;;
41201;SDS011;26936;50.524;8.684;2023-04-24T07:31:04;4.32;;;2.83;;
41201;SDS011;26936;50.524;8.684;2023-04-24T07:33:30;3.97;;;2.88;;
41201;SDS011;26936;50.524;8.684;2023-04-24T07:35:55;4.03;;;2.77;;
41201;SDS011;26936;50.524;8.684;2023-04-24T07:38:21;4.32;;;2.20;;
41201;SDS011;26936;50.524;8.684;2023-04-24T07:40:47;3.28;;;2.33;;
41201;SDS011;26936;50.524;8.684;2023-04-24T07:43:13;3.85;;;1.90;;
41201;SDS011;26936;50.524;8.684;2023-04-24T07:45:38;3.60;;;2.00;;
41201;SDS011;26936;50.524;8.684;2023-04-24T07:48:04;3.22;;;1.90;;
41201;SDS011;26936;50.524;8.684;2023-04-24T07:50:29;3.63;;;1.95;;
41201;SDS011;26936;50.524;8.684;2023-04-24T07:52:55;3.00;;;1.90;;
41201;SDS011;26936;50.524;8.684;2023-04-24T07:55:20;2.83;;;1.93;;
41201;SDS011;26936;50.524;8.684;2023-04-24T07:57:45;2.72;;;1.52;;
41201;SDS011;26936;50.524;8.684;2023-04-24T08:00:11;2.92;;;1.90;;
41201;SDS011;26936;50.524;8.684;2023-04-24T08:02:36;2.90;;;2.00;;
41201;SDS011;26936;50.524;8.684;2023-04-24T08:05:02;3.50;;;1.98;;
41201;SDS011;26936;50.524;8.684;2023-04-24T08:07:28;3.55;;;2.10;;
41201;SDS011;26936;50.524;8.684;2023-04-24T08:09:53;2.63;;;1.92;;
41201;SDS011;26936;50.524;8.684;2023-04-24T08:12:18;5.73;;;2.20;;
41201;SDS011;26936;50.524;8.684;2023-04-24T08:14:44;4.40;;;2.10;;
41201;SDS011;26936;50.524;8.684;2023-04-24T08:17:09;2.78;;;2.10;;
41201;SDS011;26936;50.524;8.684;2023-04-24T08:19:35;3.58;;;2.20;;
41201;SDS011;26936;50.524;8.684;2023-04-24T08:22:00;2.97;;;2.00;;
41201;SDS011;26936;50.524;8.684;2023-04-24T08:24:25;3.00;;;1.98;;
41201;SDS011;26936;50.524;8.684;2023-04-24T08:26:50;3.47;;;1.70;;
41201;SDS011;26936;50.524;8.684;2023-04-24T08:29:17;4.55;;;1.90;;
41201;SDS011;26936;50.524;8.684;2023-04-24T08:31:42;2.92;;;1.52;;
41201;SDS011;26936;50.524;8.684;2023-04-24T08:34:08;3.57;;;1.80;;
41201;SDS011;26936;50.524;8.684;2023-04-24T08:36:35;3.30;;;1.92;;
41201;SDS011;26936;50.524;8.684;2023-04-24T08:39:00;3.22;;;1.70;;
41201;SDS011;26936;50.524;8.684;2023-04-24T08:41:26;2.07;;;1.87;;
41201;SDS011;26936;50.524;8.684;2023-04-24T08:43:52;2.70;;;1.80;;
41201;SDS011;26936;50.524;8.684;2023-04-24T08:46:17;1.92;;;1.70;;
41201;SDS011;26936;50.524;8.684;2023-04-24T08:48:44;2.15;;;1.70;;
41201;SDS011;26936;50.524;8.684;2023-04-24T08:51:10;2.47;;;1.67;;
41201;SDS011;26936;50.524;8.684;2023-04-24T08:53:35;3.80;;;2.00;;
41201;SDS011;26936;50.524;8.684;2023-04-24T08:56:01;2.53;;;1.90;;
41201;SDS011;26936;50.524;8.684;2023-04-24T08:58:27;3.28;;;1.67;;
41201;SDS011;26936;50.524;8.684;2023-04-24T09:00:57;4.05;;;2.15;;
41201;SDS011;26936;50.524;8.684;2023-04-24T09:03:23;3.05;;;1.80;;
41201;SDS011;26936;50.524;8.684;2023-04-24T09:05:49;2.90;;;1.95;;
41201;SDS011;26936;50.524;8.684;2023-04-24T09:08:16;3.15;;;1.50;;
41201;SDS011;26936;50.524;8.684;2023-04-24T09:10:43;2.55;;;1.77;;
41201;SDS011;26936;50.524;8.684;2023-04-24T09:13:09;2.00;;;1.60;;
41201;SDS011;26936;50.524;8.684;2023-04-24T09:15:36;2.50;;;1.60;;
41201;SDS011;26936;50.524;8.684;2023-04-24T09:18:02;2.38;;;1.52;;
41201;SDS011;26936;50.524;8.684;2023-04-24T09:20:27;3.20;;;1.77;;
41201;SDS011;26936;50.524;8.684;2023-04-24T09:22:53;3.90;;;1.67;;
41201;SDS011;26936;50.524;8.684;2023-04-24T09:25:20;4.07;;;1.50;;
41201;SDS011;26936;50.524;8.684;2023-04-24T09:27:46;4.13;;;1.60;;
41201;SDS011;26936;50.524;8.684;2023-04-24T09:30:11;2.00;;;1.40;;
41201;SDS011;26936;50.524;8.684;2023-04-24T09:32:37;2.20;;;1.17;;
41201;SDS011;26936;50.524;8.684;2023-04-24T09:35:06;2.60;;;1.23;;
41201;SDS011;26936;50.524;8.684;2023-04-24T09:37:39;1.48;;;1.20;;
41201;SDS011;26936;50.524;8.684;2023-04-24T09:40:10;2.22;;;1.65;;
41201;SDS011;26936;50.524;8.684;2023-04-24T09:42:43;1.60;;;1.30;;
41201;SDS011;26936;50.524;8.684;2023-04-24T09:45:10;2.10;;;1.15;;
41201;SDS011;26936;50.524;8.684;2023-04-24T09:47:37;1.40;;;1.20;;
41201;SDS011;26936;50.524;8.684;2023-04-24T09:50:10;3.17;;;1.23;;
41201;SDS011;26936;50.524;8.684;2023-04-24T09:52:40;1.45;;;1.10;;
41201;SDS011;26936;50.524;8.684;2023-04-24T09:55:18;1.33;;;1.00;;
41201;SDS011;26936;50.524;8.684;2023-04-24T09:57:48;1.63;;;1.23;;
41201;SDS011;26936;50.524;8.684;2023-04-24T10:00:19;1.15;;;1.02;;
41201;SDS011;26936;50.524;8.684;2023-04-24T10:05:27;1.00;;;0.93;;
41201;SDS011;26936;50.524;8.684;2023-04-24T10:07:57;1.40;;;1.13;;
41201;SDS011;26936;50.524;8.684;2023-04-24T10:10:25;2.65;;;1.00;;
41201;SDS011;26936;50.524;8.684;2023-04-24T10:12:51;2.10;;;1.10;;
41201;SDS011;26936;50.524;8.684;2023-04-24T10:15:18;1.55;;;1.27;;
41201;SDS011;26936;50.524;8.684;2023-04-24T10:17:46;1.40;;;1.20;;
41201;SDS011;26936;50.524;8.684;2023-04-24T10:20:17;3.28;;;1.30;;
41201;SDS011;26936;50.524;8.684;2023-04-24T10:22:47;1.95;;;1.40;;
41201;SDS011;26936;50.524;8.684;2023-04-24T10:25:18;2.50;;;1.60;;
41201;SDS011;26936;50.524;8.684;2023-04-24T10:27:45;1.80;;;1.60;;
41201;SDS011;26936;50.524;8.684;2023-04-24T10:30:11;4.82;;;1.55;;
41201;SDS011;26936;50.524;8.684;2023-04-24T10:32:37;3.08;;;1.60;;
41201;SDS011;26936;50.524;8.684;2023-04-24T10:35:03;3.05;;;1.40;;
41201;SDS011;26936;50.524;8.684;2023-04-24T10:37:29;1.92;;;1.30;;
41201;SDS011;26936;50.524;8.684;2023-04-24T10:40:02;0.77;;;0.60;;
41201;SDS011;26936;50.524;8.684;2023-04-24T10:42:27;1.70;;;0.38;;
41201;SDS011;26936;50.524;8.684;2023-04-24T10:44:53;0.60;;;0.50;;
41201;SDS011;26936;50.524;8.684;2023-04-24T10:47:19;0.60;;;0.50;;
41201;SDS011;26936;50.524;8.684;2023-04-24T10:49:44;0.65;;;0.50;;
41201;SDS011;26936;50.524;8.684;2023-04-24T10:52:10;0.75;;;0.45;;
41201;SDS011;26936;50.524;8.684;2023-04-24T10:54:46;1.45;;;0.40;;
41201;SDS011;26936;50.524;8.684;2023-04-24T10:59:47;0.40;;;0.30;;
41201;SDS011;26936;50.524;8.684;2023-04-24T11:02:17;0.40;;;0.30;;
41201;SDS011;26936;50.524;8.684;2023-04-24T11:04:43;0.40;;;0.40;;
41201;SDS011;26936;50.524;8.684;2023-04-24T11:07:10;1.10;;;0.38;;
41201;SDS011;26936;50.524;8.684;2023-04-24T11:09:36;1.10;;;0.40;;
41201;SDS011;26936;50.524;8.684;2023-04-24T11:12:05;0.20;;;0.20;;
41201;SDS011;26936;50.524;8.684;2023-04-24T11:20:03;0.28;;;0.20;;
41201;SDS011;26936;50.524;8.684;2023-04-24T11:22:33;0.30;;;0.30;;
41201;SDS011;26936;50.524;8.684;2023-04-24T11:25:00;0.90;;;0.40;;
41201;SDS011;26936;50.524;8.684;2023-04-24T11:27:30;2.75;;;0.43;;
41201;SDS011;26936;50.524;8.684;2023-04-24T11:30:00;0.80;;;0.40;;
41201;SDS011;26936;50.524;8.684;2023-04-24T11:40:14;0.90;;;0.40;;
41201;SDS011;26936;50.524;8.684;2023-04-24T11:42:45;0.60;;;0.40;;
41201;SDS011;26936;50.524;8.684;2023-04-24T11:45:16;0.55;;;0.43;;
41201;SDS011;26936;50.524;8.684;2023-04-24T11:47:44;0.30;;;0.30;;
41201;SDS011;26936;50.524;8.684;2023-04-24T11:50:14;0.73;;;0.65;;
41201;SDS011;26936;50.524;8.684;2023-04-24T11:52:41;0.60;;;0.50;;
41201;SDS011;26936;50.524;8.684;2023-04-24T11:57:39;4.32;;;2.38;;
41201;SDS011;26936;50.524;8.684;2023-04-24T12:00:14;0.60;;;0.57;;
41201;SDS011;26936;50.524;8.684;2023-04-24T12:02:41;0.32;;;0.32;;
41201;SDS011;26936;50.524;8.684;2023-04-24T12:05:06;0.20;;;0.20;;
41201;SDS011;26936;50.524;8.684;2023-04-24T12:07:36;0.47;;;0.30;;
41201;SDS011;26936;50.524;8.684;2023-04-24T12:10:07;0.50;;;0.40;;
41201;SDS011;26936;50.524;8.684;2023-04-24T12:12:34;0.90;;;0.28;;
41201;SDS011;26936;50.524;8.684;2023-04-24T12:15:00;2.03;;;0.30;;
41201;SDS011;26936;50.524;8.684;2023-04-24T12:17:30;0.30;;;0.30;;
41201;SDS011;26936;50.524;8.684;2023-04-24T12:19:58;0.65;;;0.43;;
41201;SDS011;26936;50.524;8.684;2023-04-24T12:22:28;0.28;;;0.20;;
41201;SDS011;26936;50.524;8.684;2023-04-24T12:25:10;0.70;;;0.50;;
41201;SDS011;26936;50.524;8.684;2023-04-24T12:27:36;0.30;;;0.30;;
41201;SDS011;26936;50.524;8.684;2023-04-24T12:30:02;1.00;;;0.37;;
41201;SDS011;26936;50.524;8.684;2023-04-24T12:32:30;0.82;;;0.50;;
41201;SDS011;26936;50.524;8.684;2023-04-24T12:34:56;2.35;;;0.70;;
41201;SDS011;26936;50.524;8.684;2023-04-24T12:37:22;1.55;;;0.65;;
41201;SDS011;26936;50.524;8.684;2023-04-24T12:40:06;2.22;;;0.73;;
41201;SDS011;26936;50.524;8.684;2023-04-24T12:42:33;2.47;;;0.90;;
41201;SDS011;26936;50.524;8.684;2023-04-24T12:45:00;1.45;;;1.02;;
41201;SDS011;26936;50.524;8.684;2023-04-24T12:47:30;2.03;;;1.05;;
41201;SDS011;26936;50.524;8.684;2023-04-24T12:49:56;4.15;;;1.45;;
41201;SDS011;26936;50.524;8.684;2023-04-24T12:52:22;3.43;;;1.40;;
41201;SDS011;26936;50.524;8.684;2023-04-24T12:54:48;4.20;;;1.70;;
41201;SDS011;26936;50.524;8.684;2023-04-24T12:57:14;2.15;;;1.10;;
41201;SDS011;26936;50.524;8.684;2023-04-24T12:59:40;3.88;;;1.52;;
41201;SDS011;26936;50.524;8.684;2023-04-24T13:02:06;2.75;;;1.50;;
41201;SDS011;26936;50.524;8.684;2023-04-24T13:04:31;2.13;;;1.38;;
41201;SDS011;26936;50.524;8.684;2023-04-24T13:06:57;3.25;;;1.52;;
41201;SDS011;26936;50.524;8.684;2023-04-24T13:09:22;3.15;;;1.45;;
41201;SDS011;26936;50.524;8.684;2023-04-24T13:11:48;2.60;;;1.67;;
41201;SDS011;26936;50.524;8.684;2023-04-24T13:14:14;2.83;;;1.85;;
41201;SDS011;26936;50.524;8.684;2023-04-24T13:16:40;8.57;;;4.43;;
41201;SDS011;26936;50.524;8.684;2023-04-24T13:19:05;4.53;;;2.27;;
41201;SDS011;26936;50.524;8.684;2023-04-24T13:21:30;4.13;;;2.08;;
41201;SDS011;26936;50.524;8.684;2023-04-24T13:23:56;4.32;;;2.50;;
41201;SDS011;26936;50.524;8.684;2023-04-24T13:26:22;3.85;;;2.60;;
41201;SDS011;26936;50.524;8.684;2023-04-24T13:28:47;4.72;;;2.40;;
41201;SDS011;26936;50.524;8.684;2023-04-24T13:31:13;5.65;;;2.47;;
41201;SDS011;26936;50.524;8.684;2023-04-24T13:33:38;3.60;;;2.10;;
41201;SDS011;26936;50.524;8.684;2023-04-24T13:36:05;6.82;;;2.13;;
41201;SDS011;26936;50.524;8.684;2023-04-24T13:38:30;6.05;;;2.40;;
41201;SDS011;26936;50.524;8.684;2023-04-24T13:40:55;3.53;;;2.13;;
41201;SDS011;26936;50.524;8.684;2023-04-24T13:43:21;2.15;;;1.52;;
41201;SDS011;26936;50.524;8.684;2023-04-24T13:45:46;4.28;;;2.00;;
41201;SDS011;26936;50.524;8.684;2023-04-24T13:48:11;2.70;;;1.88;;
41201;SDS011;26936;50.524;8.684;2023-04-24T13:50:38;2.53;;;1.90;;
41201;SDS011;26936;50.524;8.684;2023-04-24T13:53:03;4.67;;;2.40;;
41201;SDS011;26936;50.524;8.684;2023-04-24T13:55:29;5.97;;;2.10;;
41201;SDS011;26936;50.524;8.684;2023-04-24T13:57:54;5.72;;;1.90;;
41201;SDS011;26936;50.524;8.684;2023-04-24T14:00:20;3.03;;;1.55;;
41201;SDS011;26936;50.524;8.684;2023-04-24T14:02:45;2.63;;;1.63;;
41201;SDS011;26936;50.524;8.684;2023-04-24T14:05:12;3.10;;;1.65;;
41201;SDS011;26936;50.524;8.684;2023-04-24T14:07:39;3.53;;;2.05;;
41201;SDS011;26936;50.524;8.684;2023-04-24T14:10:04;5.25;;;2.92;;
41201;SDS011;26936;50.524;8.684;2023-04-24T14:12:30;10.57;;;3.35;;
41201;SDS011;26936;50.524;8.684;2023-04-24T14:14:55;6.38;;;4.25;;
41201;SDS011;26936;50.524;8.684;2023-04-24T14:17:20;7.10;;;3.13;;
41201;SDS011;26936;50.524;8.684;2023-04-24T14:19:46;4.50;;;2.10;;
41201;SDS011;26936;50.524;8.684;2023-04-24T14:22:11;3.40;;;2.10;;
41201;SDS011;26936;50.524;8.684;2023-04-24T14:24:36;3.90;;;2.42;;
41201;SDS011;26936;50.524;8.684;2023-04-24T14:27:02;5.30;;;2.43;;
41201;SDS011;26936;50.524;8.684;2023-04-24T14:29:27;5.60;;;2.55;;
41201;SDS011;26936;50.524;8.684;2023-04-24T14:31:52;6.82;;;2.78;;
41201;SDS011;26936;50.524;8.684;2023-04-24T14:34:18;3.67;;;2.30;;
41201;SDS011;26936;50.524;8.684;2023-04-24T14:36:43;7.32;;;3.80;;
41201;SDS011;26936;50.524;8.684;2023-04-24T14:39:08;7.20;;;3.07;;
41201;SDS011;26936;50.524;8.684;2023-04-24T14:41:34;4.57;;;2.57;;
41201;SDS011;26936;50.524;8.684;2023-04-24T14:44:01;6.43;;;3.03;;
41201;SDS011;26936;50.524;8.684;2023-04-24T14:46:27;5.22;;;3.25;;
41201;SDS011;26936;50.524;8.684;2023-04-24T14:48:53;6.70;;;2.70;;
41201;SDS011;26936;50.524;8.684;2023-04-24T14:51:18;5.80;;;2.40;;
41201;SDS011;26936;50.524;8.684;2023-04-24T14:53:43;6.03;;;3.22;;
41201;SDS011;26936;50.524;8.684;2023-04-24T14:56:11;4.22;;;3.00;;
41201;SDS011;26936;50.524;8.684;2023-04-24T14:58:36;6.88;;;2.75;;
41201;SDS011;26936;50.524;8.684;2023-04-24T15:01:02;7.13;;;2.55;;
41201;SDS011;26936;50.524;8.684;2023-04-24T15:03:27;6.53;;;2.65;;